createdAt,value
2022-10-13T00:01:17.135Z,23.00
2022-10-13T00:03:47.660Z,37.80
2022-10-13T00:06:24.457Z,68.10
2022-10-13T00:08:53.028Z,41.50
2022-10-13T00:11:24.779Z,19.10
2022-10-13T00:13:59.623Z,25.40
2022-10-13T00:16:32.267Z,17.60
2022-10-13T00:19:00.041Z,14.90
2022-10-13T00:21:28.644Z,18.10
2022-10-13T00:23:56.796Z,31.10
2022-10-13T00:26:26.015Z,30.10
2022-10-13T00:28:55.386Z,22.40
2022-10-13T00:31:31.570Z,19.10
2022-10-13T00:34:00.886Z,38.50
2022-10-13T00:36:29.227Z,35.10
2022-10-13T00:38:58.072Z,31.70
2022-10-13T00:41:25.907Z,72.90
2022-10-13T00:44:10.750Z,33.30
2022-10-13T00:46:38.269Z,42.80
2022-10-13T00:49:14.335Z,51.90
2022-10-13T00:51:48.904Z,36.20
2022-10-13T00:54:23.624Z,34.10
2022-10-13T00:56:53.020Z,32.80
2022-10-13T00:59:26.557Z,30.70
2022-10-13T01:01:55.013Z,32.80
2022-10-13T01:04:28.037Z,30.10
2022-10-13T01:06:56.584Z,49.20
2022-10-13T01:09:24.139Z,45.00
2022-10-13T01:12:30.410Z,49.50
2022-10-13T01:15:23.738Z,34.80
2022-10-13T01:18:03.532Z,34.40
2022-10-13T01:20:47.084Z,39.80
2022-10-13T01:23:44.529Z,31.50
2022-10-13T01:26:40.585Z,47.00
2022-10-13T01:29:14.179Z,36.60
2022-10-13T01:32:00.390Z,46.00
2022-10-13T01:35:09.899Z,36.20
2022-10-13T01:37:52.407Z,23.10
2022-10-13T01:40:42.864Z,27.90
2022-10-13T01:43:19.421Z,24.60
2022-10-13T01:45:53.050Z,23.00
2022-10-13T01:48:22.087Z,57.80
2022-10-13T01:50:54.111Z,77.20
2022-10-13T01:53:23.591Z,78.70
2022-10-13T01:56:00.098Z,50.40
2022-10-13T01:58:32.498Z,36.40
2022-10-13T02:01:26.875Z,27.60
2022-10-13T02:06:53.898Z,23.00
2022-10-13T02:09:29.330Z,23.50
2022-10-13T02:12:05.421Z,25.10
2022-10-13T02:14:38.110Z,22.10
2022-10-13T02:17:06.040Z,22.70
2022-10-13T02:19:38.740Z,22.20
2022-10-13T02:22:08.154Z,20.00
2022-10-13T02:24:35.903Z,24.60
2022-10-13T02:27:06.686Z,23.00
2022-10-13T02:29:34.476Z,20.80
2022-10-13T02:32:02.027Z,22.30
2022-10-13T02:34:29.632Z,21.20
2022-10-13T02:36:57.154Z,22.40
2022-10-13T02:39:24.727Z,22.60
2022-10-13T02:41:52.233Z,22.80
2022-10-13T02:44:21.009Z,20.00
2022-10-13T02:46:48.511Z,23.40
2022-10-13T02:49:16.046Z,20.40
2022-10-13T02:51:43.570Z,23.60
2022-10-13T02:54:11.082Z,20.70
2022-10-13T02:56:38.686Z,22.70
2022-10-13T02:59:06.282Z,21.80
2022-10-13T03:01:33.938Z,21.30
2022-10-13T03:04:01.516Z,20.20
2022-10-13T03:06:29.056Z,20.50
2022-10-13T03:08:56.653Z,18.60
2022-10-13T03:11:25.254Z,22.80
2022-10-13T03:13:53.073Z,20.90
2022-10-13T03:16:20.817Z,24.80
2022-10-13T03:18:48.361Z,22.60
2022-10-13T03:21:15.867Z,20.20
2022-10-13T03:23:43.744Z,18.80
2022-10-13T03:26:11.299Z,19.40
2022-10-13T03:28:38.862Z,20.80
2022-10-13T03:31:08.590Z,20.50
2022-10-13T03:33:36.315Z,19.70
2022-10-13T03:36:05.686Z,20.20
2022-10-13T03:38:34.764Z,20.40
2022-10-13T03:41:11.469Z,16.80
2022-10-13T03:43:40.229Z,23.50
2022-10-13T03:46:10.554Z,18.40
2022-10-13T03:48:38.372Z,21.60
2022-10-13T03:51:08.032Z,19.10
2022-10-13T03:53:36.018Z,16.90
2022-10-13T03:56:05.033Z,18.80
2022-10-13T03:58:35.054Z,18.50
2022-10-13T04:01:05.719Z,16.00
2022-10-13T04:03:34.570Z,19.40
2022-10-13T04:06:06.231Z,20.30
2022-10-13T04:08:33.961Z,19.30
2022-10-13T04:11:04.000Z,19.40
2022-10-13T04:13:31.952Z,21.50
2022-10-13T04:16:04.750Z,18.50
2022-10-13T04:18:32.821Z,18.30
2022-10-13T04:21:01.078Z,21.20
2022-10-13T04:23:28.569Z,20.50
2022-10-13T04:25:56.850Z,16.70
2022-10-13T04:28:24.785Z,16.30
2022-10-13T04:30:52.447Z,18.40
2022-10-13T04:33:19.977Z,17.40
2022-10-13T04:35:47.519Z,19.10
2022-10-13T04:38:15.040Z,19.40
2022-10-13T04:40:42.555Z,18.20
2022-10-13T04:43:10.164Z,15.90
2022-10-13T04:45:37.700Z,17.90
2022-10-13T04:48:05.511Z,15.90
2022-10-13T04:50:33.043Z,21.10
2022-10-13T04:53:01.262Z,23.70
2022-10-13T04:55:28.781Z,18.20
2022-10-13T04:57:56.854Z,19.00
2022-10-13T05:00:24.483Z,20.00
2022-10-13T05:02:52.327Z,16.70
2022-10-13T05:05:19.909Z,16.00
2022-10-13T05:07:47.416Z,18.50
2022-10-13T05:10:15.050Z,18.10
2022-10-13T05:12:42.617Z,18.70
2022-10-13T05:15:10.366Z,21.10
2022-10-13T05:17:37.934Z,24.00
2022-10-13T05:20:09.943Z,20.50
2022-10-13T05:22:37.804Z,22.30
2022-10-13T05:25:05.601Z,23.00
2022-10-13T05:27:33.178Z,17.70
2022-10-13T05:30:01.611Z,18.00
2022-10-13T05:32:29.153Z,20.80
2022-10-13T05:34:56.903Z,21.20
2022-10-13T05:37:24.481Z,20.40
2022-10-13T05:39:52.005Z,30.00
2022-10-13T05:42:20.019Z,22.70
2022-10-13T05:44:47.844Z,21.70
2022-10-13T05:47:15.410Z,19.20
2022-10-13T05:49:42.921Z,22.30
2022-10-13T05:52:12.733Z,21.20
2022-10-13T05:54:44.089Z,18.10
2022-10-13T05:57:24.485Z,16.10
2022-10-13T05:59:56.782Z,18.90
2022-10-13T06:02:28.273Z,17.80
2022-10-13T06:04:57.817Z,15.30
2022-10-13T06:07:25.713Z,18.80
2022-10-13T06:09:53.300Z,20.10
2022-10-13T06:13:09.785Z,18.50
2022-10-13T06:15:37.283Z,17.70
2022-10-13T06:18:10.124Z,18.30
2022-10-13T06:20:37.827Z,19.10
2022-10-13T06:23:05.658Z,16.30
2022-10-13T06:25:33.459Z,15.90
2022-10-13T06:28:01.126Z,18.10
2022-10-13T06:30:29.137Z,17.90
2022-10-13T06:32:58.194Z,15.30
2022-10-13T06:35:32.521Z,16.20
2022-10-13T06:38:00.081Z,35.30
2022-10-13T06:40:27.743Z,17.10
2022-10-13T06:42:55.404Z,20.20
2022-10-13T06:45:23.232Z,25.80
2022-10-13T06:47:53.792Z,21.50
2022-10-13T06:50:24.837Z,17.70
2022-10-13T06:52:52.414Z,16.50
2022-10-13T06:55:20.102Z,16.10
2022-10-13T06:57:47.706Z,17.30
2022-10-13T07:00:15.372Z,12.90
2022-10-13T07:02:44.518Z,15.50
2022-10-13T07:05:13.425Z,15.00
2022-10-13T07:07:41.178Z,18.70
2022-10-13T07:10:09.308Z,17.40
2022-10-13T07:12:37.897Z,16.10
2022-10-13T07:15:06.039Z,16.40
2022-10-13T07:17:33.586Z,18.20
2022-10-13T07:20:03.673Z,21.20
2022-10-13T07:22:35.124Z,15.40
2022-10-13T07:25:03.042Z,14.50
2022-10-13T07:27:30.553Z,14.20
2022-10-13T07:29:58.049Z,15.40
2022-10-13T07:32:25.578Z,13.30
2022-10-13T07:34:53.946Z,16.70
2022-10-13T07:37:22.252Z,16.00
2022-10-13T07:39:50.136Z,19.20
2022-10-13T07:42:17.841Z,16.30
2022-10-13T07:44:45.441Z,19.40
2022-10-13T07:47:16.905Z,15.30
2022-10-13T07:49:45.738Z,16.10
2022-10-13T07:52:13.340Z,16.30
2022-10-13T07:54:40.968Z,17.40
2022-10-13T07:57:10.635Z,18.10
2022-10-13T07:59:38.516Z,15.00
2022-10-13T08:02:10.919Z,16.20
2022-10-13T08:04:39.193Z,17.50
2022-10-13T08:07:06.921Z,14.80
2022-10-13T08:09:35.070Z,17.70
2022-10-13T08:12:03.684Z,15.50
2022-10-13T08:14:31.663Z,14.90
2022-10-13T08:16:59.417Z,13.50
2022-10-13T08:19:28.239Z,15.60
2022-10-13T08:21:58.871Z,14.10
2022-10-13T08:24:28.221Z,16.70
2022-10-13T08:26:56.332Z,13.60
2022-10-13T08:29:24.510Z,13.50
2022-10-13T08:31:53.652Z,15.30
2022-10-13T08:34:23.304Z,14.60
2022-10-13T08:36:54.243Z,13.60
2022-10-13T08:39:24.588Z,11.30
2022-10-13T08:41:54.095Z,13.00
2022-10-13T08:47:53.184Z,11.90
2022-10-13T08:50:25.097Z,11.80
2022-10-13T08:53:09.832Z,13.30
2022-10-13T08:55:45.133Z,13.80
2022-10-13T08:58:18.084Z,10.60
2022-10-13T09:00:46.761Z,12.20
2022-10-13T09:03:21.144Z,11.30
2022-10-13T09:06:02.825Z,11.90
2022-10-13T09:08:38.332Z,12.50
2022-10-13T09:11:09.733Z,10.10
2022-10-13T09:13:37.353Z,11.30
2022-10-13T09:16:05.239Z,12.20
2022-10-13T09:18:35.661Z,13.70
2022-10-13T09:21:12.051Z,13.10
2022-10-13T09:23:41.898Z,12.20
2022-10-13T09:26:19.066Z,12.00
2022-10-13T09:28:53.159Z,11.00
2022-10-13T09:31:28.301Z,12.30
2022-10-13T09:34:10.285Z,13.50
2022-10-13T09:36:38.210Z,14.60
2022-10-13T09:39:22.671Z,12.20
2022-10-13T09:41:50.543Z,13.90
2022-10-13T09:44:28.474Z,9.50
2022-10-13T09:46:59.195Z,10.50
2022-10-13T09:49:38.509Z,17.10
2022-10-13T09:52:17.735Z,16.10
2022-10-13T09:54:53.938Z,17.90
2022-10-13T09:57:30.424Z,14.40
2022-10-13T10:00:04.363Z,10.80
2022-10-13T10:02:58.313Z,13.60
2022-10-13T10:05:32.521Z,11.70
2022-10-13T10:08:14.564Z,12.80
2022-10-13T10:10:43.323Z,13.40
2022-10-13T10:13:12.603Z,11.90
2022-10-13T10:15:58.881Z,14.10
2022-10-13T10:18:58.463Z,13.30
2022-10-13T10:21:47.618Z,11.90
2022-10-13T10:24:32.864Z,10.80
2022-10-13T10:27:15.282Z,11.90
2022-10-13T10:30:04.581Z,10.30
2022-10-13T10:32:50.915Z,12.90
2022-10-13T10:35:37.080Z,10.80
2022-10-13T10:38:26.667Z,9.90
2022-10-13T10:41:16.053Z,9.90
2022-10-13T10:44:04.389Z,10.20
2022-10-13T10:46:36.436Z,10.10
2022-10-13T10:49:30.781Z,8.90
2022-10-13T10:52:01.609Z,12.40
2022-10-13T10:54:49.160Z,11.30
2022-10-13T10:57:29.365Z,14.60
2022-10-13T11:00:10.219Z,12.90
2022-10-13T11:02:40.866Z,14.90
2022-10-13T11:05:08.635Z,11.60
2022-10-13T11:07:39.122Z,9.30
2022-10-13T11:10:12.768Z,9.40
2022-10-13T11:15:31.241Z,9.30
2022-10-13T11:17:58.814Z,9.80
2022-10-13T11:20:26.350Z,10.00
2022-10-13T11:22:59.994Z,9.50
2022-10-13T11:25:44.783Z,11.80
2022-10-13T11:28:44.216Z,9.50
2022-10-13T11:31:16.765Z,8.40
2022-10-13T11:33:47.973Z,14.40
2022-10-13T11:36:37.151Z,11.10
2022-10-13T11:39:28.240Z,11.70
2022-10-13T11:42:11.930Z,9.20
2022-10-13T11:45:13.445Z,20.60
2022-10-13T11:48:12.913Z,11.90
2022-10-13T11:51:23.644Z,11.60
2022-10-13T11:54:23.598Z,9.50
2022-10-13T11:56:53.858Z,11.40
2022-10-13T11:59:31.753Z,9.20
2022-10-13T12:02:18.961Z,11.00
2022-10-13T12:05:08.838Z,10.30
2022-10-13T12:07:41.077Z,9.30
2022-10-13T12:10:20.091Z,12.30
2022-10-13T12:12:51.365Z,8.10
2022-10-13T12:15:41.084Z,8.60
2022-10-13T12:18:25.079Z,10.60
2022-10-13T12:21:20.186Z,10.70
2022-10-13T12:23:50.885Z,9.10
2022-10-13T12:26:22.807Z,10.80
2022-10-13T12:29:00.771Z,7.30
2022-10-13T12:31:38.264Z,10.40
2022-10-13T12:34:18.505Z,45.70
2022-10-13T12:39:22.040Z,22.40
2022-10-13T12:41:50.708Z,10.70
2022-10-13T12:44:22.470Z,12.20
2022-10-13T12:46:52.487Z,11.30
2022-10-13T12:51:52.474Z,11.10
2022-10-13T12:54:32.680Z,13.20
2022-10-13T12:57:05.143Z,10.00
2022-10-13T12:59:34.497Z,8.90
2022-10-13T13:02:19.146Z,10.20
2022-10-13T13:04:47.093Z,8.90
2022-10-13T13:07:37.177Z,8.70
2022-10-13T13:10:07.718Z,9.90
2022-10-13T13:12:36.852Z,11.70
2022-10-13T13:15:26.898Z,11.20
2022-10-13T13:17:59.327Z,9.20
2022-10-13T13:20:33.798Z,8.80
2022-10-13T13:23:01.506Z,9.90
2022-10-13T13:25:29.067Z,10.80
2022-10-13T13:27:56.807Z,7.90
2022-10-13T13:30:24.575Z,11.10
2022-10-13T13:32:52.189Z,12.00
2022-10-13T13:35:20.239Z,12.30
2022-10-13T13:37:50.849Z,10.10
2022-10-13T13:40:26.473Z,9.30
2022-10-13T13:42:54.877Z,9.20
2022-10-13T13:45:25.442Z,8.80
2022-10-13T13:47:57.955Z,8.00
2022-10-13T13:50:33.923Z,10.40
2022-10-13T13:53:01.614Z,9.00
2022-10-13T13:55:30.014Z,11.50
2022-10-13T13:57:58.647Z,12.00
2022-10-13T14:00:26.157Z,9.80
2022-10-13T14:02:57.615Z,9.70
2022-10-13T14:05:25.530Z,9.50
2022-10-13T14:07:55.059Z,10.50
2022-10-13T14:10:22.721Z,10.50
2022-10-13T14:12:51.423Z,8.70
2022-10-13T14:15:19.137Z,9.50
2022-10-13T14:17:46.781Z,11.10
2022-10-13T14:20:14.399Z,10.90
2022-10-13T14:22:42.294Z,10.70
2022-10-13T14:25:10.780Z,10.30
2022-10-13T14:27:38.357Z,11.30
2022-10-13T14:30:08.709Z,9.20
2022-10-13T14:32:37.204Z,10.90
2022-10-13T14:35:05.568Z,9.40
2022-10-13T14:37:34.130Z,14.60
2022-10-13T14:40:02.032Z,12.20
2022-10-13T14:42:29.609Z,10.20
2022-10-13T14:44:57.146Z,17.00
2022-10-13T14:47:24.653Z,15.50
2022-10-13T14:49:52.301Z,10.60
2022-10-13T14:52:19.817Z,11.10
2022-10-13T14:54:47.521Z,12.20
2022-10-13T14:57:16.291Z,11.60
2022-10-13T14:59:44.070Z,11.00
2022-10-13T15:02:12.977Z,10.70
2022-10-13T15:04:45.992Z,14.20
2022-10-13T15:07:13.483Z,29.00
2022-10-13T15:09:52.916Z,15.00
2022-10-13T15:12:21.340Z,12.00
2022-10-13T15:14:49.076Z,12.40
2022-10-13T15:17:16.581Z,11.20
2022-10-13T15:19:44.216Z,10.20
2022-10-13T15:22:11.987Z,10.90
2022-10-13T15:24:39.454Z,15.00
2022-10-13T15:27:06.973Z,13.10
2022-10-13T15:29:34.844Z,13.90
2022-10-13T15:32:11.071Z,11.80
2022-10-13T15:34:41.645Z,11.80
2022-10-13T15:37:09.126Z,12.60
2022-10-13T15:39:36.957Z,17.10
2022-10-13T15:42:05.289Z,18.80
2022-10-13T15:44:51.019Z,21.00
2022-10-13T15:47:20.278Z,17.00
2022-10-13T15:49:47.757Z,19.50
2022-10-13T15:52:15.388Z,20.40
2022-10-13T15:54:42.993Z,19.70
2022-10-13T15:57:10.483Z,17.20
2022-10-13T15:59:37.970Z,17.00
2022-10-13T16:02:05.457Z,16.30
2022-10-13T16:04:37.516Z,20.60
2022-10-13T16:07:05.354Z,15.40
2022-10-13T16:09:33.005Z,14.90
2022-10-13T16:12:00.661Z,11.40
2022-10-13T16:14:28.180Z,14.20
2022-10-13T16:16:57.967Z,12.20
2022-10-13T16:19:25.572Z,12.60
2022-10-13T16:21:53.077Z,12.20
2022-10-13T16:24:21.005Z,13.00
2022-10-13T16:26:48.521Z,15.40
2022-10-13T16:29:16.164Z,23.60
2022-10-13T16:31:44.152Z,15.10
2022-10-13T16:34:11.686Z,14.30
2022-10-13T16:36:39.180Z,18.50
2022-10-13T16:39:06.732Z,16.20
2022-10-13T16:41:34.801Z,14.50
2022-10-13T16:44:02.342Z,17.20
2022-10-13T16:46:29.899Z,18.20
2022-10-13T16:48:57.615Z,15.80
2022-10-13T16:51:26.552Z,15.50
2022-10-13T16:54:01.191Z,16.70
2022-10-13T16:56:31.634Z,19.40
2022-10-13T16:59:04.674Z,22.00
2022-10-13T17:01:34.365Z,22.80
2022-10-13T17:04:03.278Z,22.40
2022-10-13T17:06:30.871Z,27.90
2022-10-13T17:09:00.501Z,26.60
2022-10-13T17:11:30.116Z,27.10
2022-10-13T17:13:59.339Z,24.80
2022-10-13T17:16:31.859Z,21.00
2022-10-13T17:18:59.826Z,17.80
2022-10-13T17:21:43.988Z,20.90
2022-10-13T17:24:11.771Z,19.00
2022-10-13T17:26:39.562Z,19.50
2022-10-13T17:29:07.080Z,22.10
2022-10-13T17:31:34.602Z,23.00
2022-10-13T17:34:02.302Z,18.40
2022-10-13T17:36:34.438Z,19.40
2022-10-13T17:39:11.248Z,75.00
2022-10-13T17:41:41.982Z,216.90
2022-10-13T17:44:10.034Z,106.40
2022-10-13T17:46:39.272Z,89.00
2022-10-13T17:49:11.181Z,44.80
2022-10-13T17:51:39.781Z,35.00
2022-10-13T17:54:11.599Z,26.50
2022-10-13T17:56:42.298Z,44.90
2022-10-13T17:59:10.215Z,39.30
2022-10-13T18:01:38.491Z,21.20
2022-10-13T18:04:09.862Z,23.20
2022-10-13T18:06:40.511Z,26.20
2022-10-13T18:09:14.059Z,26.00
2022-10-13T18:11:49.479Z,25.80
2022-10-13T18:14:20.917Z,21.80
2022-10-13T18:16:50.849Z,20.80
2022-10-13T18:19:18.965Z,23.70
2022-10-13T18:21:46.675Z,26.10
2022-10-13T18:24:14.377Z,19.90
2022-10-13T18:26:42.001Z,26.70
2022-10-13T18:29:11.836Z,26.60
2022-10-13T18:31:41.125Z,30.90
2022-10-13T18:34:15.854Z,23.50
2022-10-13T18:36:47.246Z,28.40
2022-10-13T18:39:18.411Z,21.90
2022-10-13T18:41:47.338Z,27.70
2022-10-13T18:44:15.892Z,22.10
2022-10-13T18:46:43.791Z,38.90
2022-10-13T18:49:14.420Z,43.40
2022-10-13T18:51:42.771Z,34.20
2022-10-13T18:54:10.969Z,44.80
2022-10-13T18:56:38.547Z,47.40
2022-10-13T18:59:07.954Z,19.00
2022-10-13T19:01:37.155Z,27.30
2022-10-13T19:04:05.699Z,22.80
2022-10-13T19:06:33.706Z,21.30
2022-10-13T19:09:04.311Z,17.80
2022-10-13T19:11:35.484Z,50.10
2022-10-13T19:14:05.617Z,27.90
2022-10-13T19:16:36.739Z,24.90
2022-10-13T19:19:04.628Z,21.30
2022-10-13T19:21:32.686Z,26.80
2022-10-13T19:24:00.963Z,37.80
2022-10-13T19:26:32.624Z,33.40
2022-10-13T19:29:04.261Z,25.00
2022-10-13T19:31:33.441Z,19.40
2022-10-13T19:34:01.758Z,23.30
2022-10-13T19:36:38.933Z,23.40
2022-10-13T19:39:17.098Z,19.90
2022-10-13T19:41:45.961Z,21.00
2022-10-13T19:44:15.659Z,33.10
2022-10-13T19:46:44.891Z,51.10
2022-10-13T19:49:15.492Z,22.60
2022-10-13T19:51:46.637Z,22.20
2022-10-13T19:54:14.966Z,19.30
2022-10-13T19:56:48.228Z,19.60
2022-10-13T19:59:17.703Z,16.90
2022-10-13T20:01:45.819Z,17.00
2022-10-13T20:04:15.688Z,20.60
2022-10-13T20:06:45.708Z,19.30
2022-10-13T20:09:13.892Z,17.50
2022-10-13T20:11:44.930Z,18.50
2022-10-13T20:14:13.528Z,20.20
2022-10-13T20:16:41.508Z,17.80
2022-10-13T20:19:12.791Z,15.60
2022-10-13T20:21:41.064Z,17.50
2022-10-13T20:24:12.994Z,17.00
2022-10-13T20:26:40.953Z,17.20
2022-10-13T20:29:08.863Z,22.60
2022-10-13T20:31:36.854Z,18.30
2022-10-13T20:34:04.546Z,17.50
2022-10-13T20:36:38.294Z,17.10
2022-10-13T20:41:35.381Z,20.90
2022-10-13T20:44:03.709Z,17.00
2022-10-13T20:46:33.690Z,20.70
2022-10-13T20:49:17.359Z,20.70
2022-10-13T20:51:45.011Z,18.10
2022-10-13T20:54:14.756Z,17.30
2022-10-13T20:56:43.088Z,18.50
2022-10-13T20:59:14.354Z,20.70
2022-10-13T21:01:42.727Z,18.50
2022-10-13T21:04:11.115Z,16.80
2022-10-13T21:06:40.921Z,28.10
2022-10-13T21:09:09.253Z,25.20
2022-10-13T21:11:39.516Z,24.60
2022-10-13T21:14:09.453Z,22.40
2022-10-13T21:16:39.952Z,21.60
2022-10-13T21:19:09.729Z,22.50
2022-10-13T21:21:38.101Z,27.20
2022-10-13T21:24:07.228Z,18.10
2022-10-13T21:26:35.299Z,24.70
2022-10-13T21:29:03.509Z,19.70
2022-10-13T21:31:32.496Z,21.60
2022-10-13T21:34:00.817Z,19.30
2022-10-13T21:36:31.009Z,20.50
2022-10-13T21:39:01.754Z,24.00
2022-10-13T21:41:30.624Z,22.10
2022-10-13T21:43:58.624Z,23.60
2022-10-13T21:46:32.740Z,21.50
2022-10-13T21:49:02.725Z,23.90
2022-10-13T21:51:33.771Z,20.00
2022-10-13T21:54:05.320Z,18.90
2022-10-13T21:56:33.978Z,20.00
2022-10-13T21:59:02.299Z,19.70
2022-10-13T22:01:30.115Z,20.30
2022-10-13T22:04:01.621Z,26.60
2022-10-13T22:06:31.631Z,51.90
2022-10-13T22:09:01.273Z,27.40
2022-10-13T22:11:31.058Z,21.50
2022-10-13T22:13:59.713Z,20.00
2022-10-13T22:16:31.819Z,22.00
2022-10-13T22:18:59.522Z,17.50
2022-10-13T22:21:30.485Z,20.10
2022-10-13T22:24:01.369Z,25.50
2022-10-13T22:26:31.738Z,17.70
2022-10-13T22:29:01.235Z,24.90
2022-10-13T22:31:30.592Z,23.00
2022-10-13T22:33:58.825Z,25.30
2022-10-13T22:36:27.012Z,21.30
2022-10-13T22:38:57.382Z,17.20
2022-10-13T22:41:25.808Z,23.20
2022-10-13T22:43:57.202Z,21.80
2022-10-13T22:46:27.927Z,29.50
2022-10-13T22:48:56.665Z,25.30
2022-10-13T22:51:27.354Z,28.80
2022-10-13T22:53:56.144Z,24.00
2022-10-13T22:56:26.740Z,22.30
2022-10-13T22:58:57.611Z,34.10
2022-10-13T23:01:26.264Z,43.50
2022-10-13T23:03:56.100Z,32.30
2022-10-13T23:06:27.556Z,27.50
2022-10-13T23:08:55.553Z,22.30
2022-10-13T23:11:23.350Z,22.40
2022-10-13T23:13:51.036Z,25.20
2022-10-13T23:16:24.158Z,26.40
2022-10-13T23:18:52.727Z,32.80
2022-10-13T23:21:28.596Z,38.00
2022-10-13T23:24:01.557Z,31.50
2022-10-13T23:26:30.292Z,24.30
2022-10-13T23:28:59.017Z,25.40
2022-10-13T23:31:27.639Z,20.80
2022-10-13T23:33:56.155Z,33.20
2022-10-13T23:36:27.111Z,50.10
2022-10-13T23:38:59.733Z,46.10
2022-10-13T23:41:29.162Z,34.40
2022-10-13T23:43:57.231Z,35.70
2022-10-13T23:46:25.437Z,22.70
2022-10-13T23:48:53.032Z,21.20
2022-10-13T23:51:24.003Z,58.90
2022-10-13T23:53:52.252Z,48.80
2022-10-13T23:56:20.449Z,50.70
2022-10-13T23:58:49.022Z,35.70
